logo
Search for airport 
image banner adimage banner adimage banner ad
image banner ad

UUDN - Novinki

Located in Novinki, Russian Federation

ICAO - , IATA -

Data provided by Airmate  

General information

Coordinates: N54°58'43" E37°39'27"
Elevation is 578 feet MSL.
Magnetic variation is 11° East
Rated:
View ratings:
[VIEW]
View others Airports in Moscow Oblast

Operational data

Special qualification required
Current time UTC:
Current local time:
Weather at : UUDD - Moscow/Domodedovo ( 50 km )
METAR: UUDD 241200Z 05003MPS 330V100 CAVOK 25/11 Q1012 R32L/CLRD60 NOSIG
TAF: TAF UUDD 241054Z 2412/2518 02003MPS 9999 SCT040 TX26/2412Z TN15/2501Z TEMPO 2412/2418 06008MPS PROB40 TEMPO 2413/2418 -TSRA BKN020CB TEMPO 2506/2516 36009G17MPS -TSRA BKN016CB
View NOTAMs / SUP AIP / TFR affecting this airport [VIEW]
Communications frequencies: [VIEW]

Runways:

RWY identifierQFULength (ft)Width (ft)SurfaceLDA (ft)
0451°00ASPH
22231°00ASPH

Airport contact information

Address: Novinki Russian Federation

Satellite view of UUDN